Time;durP1;ratioP1;P1;durP2;ratioP2;P2;SDS_P1;SDS_P2;PMS_P1;PMS_P2;Temp;Humidity;BMP_temperature;BMP_pressure;BME280_temperature;BME280_humidity;BME280_pressure;Samples;Min_cycle;Max_cycle;Signal;HPM_P1;HPM_P2
2022/04/27 00:02:15;;;;;;;2.60;2.08;;;10.70;67.60;;;;;;4958668;28;20027;-70
2022/04/27 00:04:40;;;;;;;3.50;2.17;;;10.50;68.10;;;;;;4944066;28;20038;-71
2022/04/27 00:07:07;;;;;;;2.78;1.85;;;10.40;68.80;;;;;;4954541;28;20031;-71
2022/04/27 00:09:33;;;;;;;3.55;2.28;;;10.30;69.30;;;;;;4955234;28;20031;-70
2022/04/27 00:12:01;;;;;;;3.22;2.20;;;10.20;70.10;;;;;;4955752;28;20035;-70
2022/04/27 00:14:31;;;;;;;3.55;2.17;;;10.10;69.80;;;;;;4954892;28;20031;-70
2022/04/27 00:16:58;;;;;;;3.88;2.22;;;9.90;70.00;;;;;;4943297;28;20118;-70
2022/04/27 00:19:24;;;;;;;3.42;2.05;;;9.90;70.70;;;;;;4958391;28;20031;-70
2022/04/27 00:21:50;;;;;;;2.67;1.95;;;9.80;71.20;;;;;;4953299;28;20031;-70
2022/04/27 00:24:17;;;;;;;2.33;1.85;;;9.70;71.40;;;;;;4956283;28;20035;-70
2022/04/27 00:26:44;;;;;;;5.70;2.60;;;9.60;71.80;;;;;;4957061;28;20116;-70
2022/04/27 00:29:10;;;;;;;3.70;2.40;;;9.60;72.10;;;;;;4936679;28;20039;-70
2022/04/27 00:31:36;;;;;;;3.97;2.28;;;9.50;72.60;;;;;;4944455;28;20081;-70
2022/04/27 00:34:02;;;;;;;4.50;2.25;;;9.50;72.90;;;;;;4957860;28;20150;-70
2022/04/27 00:36:30;;;;;;;4.47;2.42;;;9.40;72.80;;;;;;4941453;28;20090;-70
2022/04/27 00:38:55;;;;;;;4.38;2.45;;;9.40;72.90;;;;;;4955811;28;20448;-70
2022/04/27 00:41:21;;;;;;;4.35;2.75;;;9.30;73.10;;;;;;4960735;28;20030;-70
2022/04/27 00:43:48;;;;;;;3.63;2.30;;;9.20;73.50;;;;;;4959055;28;20138;-70
2022/04/27 00:46:13;;;;;;;4.75;2.50;;;9.20;74.20;;;;;;4940564;28;20030;-70
2022/04/27 00:48:41;;;;;;;4.15;2.28;;;9.10;74.60;;;;;;4957233;28;20045;-70
2022/04/27 00:51:11;;;;;;;2.92;2.35;;;9.10;75.00;;;;;;4936989;28;20939;-70
2022/04/27 00:53:37;;;;;;;3.58;2.70;;;9.00;75.30;;;;;;4958994;28;20705;-70
2022/04/27 00:56:04;;;;;;;5.00;2.53;;;9.00;75.50;;;;;;4938932;28;20610;-70
2022/04/27 00:58:30;;;;;;;6.43;2.70;;;8.90;75.60;;;;;;4945243;28;20046;-70
2022/04/27 01:00:56;;;;;;;3.72;2.60;;;8.90;76.20;;;;;;4943794;28;20603;-70
2022/04/27 01:03:25;;;;;;;3.72;2.33;;;8.80;76.40;;;;;;4945788;28;20075;-70
2022/04/27 01:05:51;;;;;;;5.50;2.80;;;8.80;76.70;;;;;;4936590;28;20027;-70
2022/04/27 01:08:19;;;;;;;4.20;2.92;;;8.80;76.80;;;;;;4955484;28;20031;-70
2022/04/27 01:10:47;;;;;;;3.90;2.85;;;8.70;77.00;;;;;;4934142;28;20030;-70
2022/04/27 01:13:13;;;;;;;7.00;2.70;;;8.60;77.00;;;;;;4954133;28;20066;-70
2022/04/27 01:15:40;;;;;;;5.50;3.03;;;8.60;77.30;;;;;;4938848;29;20560;-70
2022/04/27 01:18:08;;;;;;;7.05;3.45;;;8.60;77.60;;;;;;4940616;28;20050;-70
2022/04/27 01:20:38;;;;;;;5.63;2.83;;;8.50;77.60;;;;;;4957408;28;20041;-70
2022/04/27 01:23:08;;;;;;;3.88;2.95;;;8.40;77.90;;;;;;4937678;28;20031;-70
2022/04/27 01:26:05;;;;;;;4.30;2.88;;;8.40;78.20;;;;;;4943269;28;20495;-70
2022/04/27 01:28:32;;;;;;;4.78;2.90;;;8.40;78.40;;;;;;4947369;28;20050;-70
2022/04/27 01:31:02;;;;;;;4.97;3.28;;;8.30;78.60;;;;;;4942292;28;20186;-70
2022/04/27 01:33:34;;;;;;;4.47;3.13;;;8.30;78.60;;;;;;4958676;28;20141;-70
2022/04/27 01:36:01;;;;;;;3.65;2.65;;;8.20;78.60;;;;;;4926683;28;20131;-70
2022/04/27 01:38:32;;;;;;;6.30;3.25;;;8.20;79.00;;;;;;4955930;28;20026;-70
2022/04/27 01:40:58;;;;;;;4.57;3.40;;;8.10;79.00;;;;;;4953309;28;20031;-70
2022/04/27 01:43:24;;;;;;;4.75;3.47;;;8.10;79.10;;;;;;4942587;28;20034;-70
2022/04/27 01:45:53;;;;;;;5.85;3.28;;;8.10;79.20;;;;;;4956314;28;20464;-70
2022/04/27 01:48:19;;;;;;;7.85;3.00;;;8.00;79.50;;;;;;4954421;28;20029;-70
2022/04/27 01:50:45;;;;;;;5.72;2.95;;;8.00;79.60;;;;;;4952442;28;20046;-70
2022/04/27 01:55:55;;;;;;;5.95;3.10;;;7.90;80.10;;;;;;4951985;28;20106;-70
2022/04/27 01:58:22;;;;;;;4.32;2.90;;;7.90;80.30;;;;;;4937819;28;20023;-70
2022/04/27 02:00:52;;;;;;;7.03;3.42;;;7.80;80.50;;;;;;4943544;28;20026;-70
2022/04/27 02:03:19;;;;;;;4.70;3.00;;;7.80;80.80;;;;;;4937616;28;20038;-70
2022/04/27 02:05:45;;;;;;;3.30;2.42;;;7.80;81.10;;;;;;4921375;28;20038;-70
2022/04/27 02:08:12;;;;;;;4.40;2.90;;;7.80;81.20;;;;;;4936241;28;20049;-70
2022/04/27 02:10:38;;;;;;;5.07;3.03;;;7.80;81.20;;;;;;4942812;28;20022;-70
2022/04/27 02:13:05;;;;;;;5.28;3.13;;;7.70;81.30;;;;;;4936729;28;20220;-70
2022/04/27 02:15:32;;;;;;;5.10;3.55;;;7.70;81.50;;;;;;4943987;28;20079;-70
2022/04/27 02:18:13;;;;;;;5.72;3.58;;;7.70;81.90;;;;;;4940036;28;20071;-70
2022/04/27 02:20:40;;;;;;;4.53;3.20;;;7.60;82.10;;;;;;4940117;28;20068;-70
2022/04/27 02:23:06;;;;;;;6.22;3.47;;;7.60;82.20;;;;;;4937163;28;20031;-70
2022/04/27 02:25:31;;;;;;;6.03;3.30;;;7.50;82.20;;;;;;4955085;28;20146;-70
2022/04/27 02:27:58;;;;;;;3.95;3.10;;;7.50;82.30;;;;;;4951623;28;20029;-70
2022/04/27 02:30:24;;;;;;;4.45;2.97;;;7.40;82.40;;;;;;4939847;28;20058;-70
2022/04/27 02:32:51;;;;;;;5.10;3.17;;;7.40;82.70;;;;;;4944593;28;20030;-70
2022/04/27 02:35:18;;;;;;;5.40;3.20;;;7.40;82.90;;;;;;4928160;28;20027;-70
2022/04/27 02:37:45;;;;;;;4.15;3.30;;;7.30;83.20;;;;;;4943009;28;20027;-72
2022/04/27 02:40:11;;;;;;;6.15;2.95;;;7.30;83.60;;;;;;4939159;28;20027;-72
2022/04/27 02:42:38;;;;;;;5.10;3.13;;;7.30;83.60;;;;;;4957358;28;20101;-72
2022/04/27 02:45:05;;;;;;;5.20;3.83;;;7.20;83.90;;;;;;4937560;28;20034;-71
2022/04/27 02:47:32;;;;;;;6.70;3.75;;;7.20;84.00;;;;;;4937400;28;20037;-72
2022/04/27 02:52:54;;;;;;;4.60;3.25;;;7.10;84.40;;;;;;4955163;28;20030;-72
2022/04/27 02:55:25;;;;;;;4.18;3.38;;;7.10;84.60;;;;;;4941647;28;20087;-72
2022/04/27 02:57:51;;;;;;;4.72;3.72;;;7.10;84.80;;;;;;4940273;28;20031;-72
2022/04/27 03:00:17;;;;;;;8.18;3.60;;;7.00;85.10;;;;;;4937334;28;20022;-71
2022/04/27 03:02:43;;;;;;;5.13;3.47;;;7.00;85.20;;;;;;4940589;28;20035;-71
2022/04/27 03:05:10;;;;;;;6.38;4.28;;;7.00;85.60;;;;;;4939163;28;20089;-71
2022/04/27 03:07:36;;;;;;;4.90;3.92;;;7.00;85.90;;;;;;4942223;28;20031;-71
2022/04/27 03:10:02;;;;;;;5.70;3.80;;;6.90;85.90;;;;;;4942145;28;20399;-72
2022/04/27 03:12:28;;;;;;;7.22;4.10;;;6.90;86.00;;;;;;4935778;28;20586;-72
2022/04/27 03:14:55;;;;;;;5.80;3.70;;;6.90;86.20;;;;;;4941387;28;20065;-71
2022/04/27 03:17:21;;;;;;;7.35;3.97;;;6.90;86.50;;;;;;4957337;28;20105;-71
2022/04/27 03:19:47;;;;;;;6.47;4.53;;;6.90;86.60;;;;;;4954713;28;20087;-70
2022/04/27 03:22:13;;;;;;;6.75;4.40;;;6.90;86.80;;;;;;4957494;28;20466;-70
2022/04/27 03:24:39;;;;;;;7.88;4.45;;;6.90;87.00;;;;;;4934455;28;20118;-70
2022/04/27 03:27:22;;;;;;;8.32;4.72;;;6.90;87.20;;;;;;4927259;28;20031;-70
2022/04/27 03:29:48;;;;;;;8.38;4.15;;;6.90;87.20;;;;;;4940904;28;20023;-70
2022/04/27 03:32:14;;;;;;;8.18;4.85;;;6.80;87.30;;;;;;4938688;28;20027;-70
2022/04/27 03:34:47;;;;;;;10.68;4.90;;;6.90;87.30;;;;;;4939934;28;20034;-70
2022/04/27 03:37:13;;;;;;;7.53;4.35;;;6.90;87.60;;;;;;4956842;28;20470;-70
2022/04/27 03:39:39;;;;;;;7.53;4.72;;;6.90;87.80;;;;;;4940852;28;20027;-70
2022/04/27 03:42:06;;;;;;;7.15;4.30;;;6.90;88.00;;;;;;4943094;28;20538;-70
2022/04/27 03:44:33;;;;;;;11.57;5.20;;;6.90;88.00;;;;;;4942256;28;20122;-70
2022/04/27 03:46:58;;;;;;;7.18;5.25;;;6.90;88.10;;;;;;4940460;28;20489;-70
2022/04/27 03:49:27;;;;;;;6.32;3.95;;;6.90;87.90;;;;;;4942909;28;20050;-70
2022/04/27 03:51:53;;;;;;;8.98;4.55;;;6.90;87.80;;;;;;4940867;28;20034;-70
2022/04/27 03:54:21;;;;;;;8.45;4.47;;;6.90;87.60;;;;;;4942722;28;20530;-70
2022/04/27 03:56:47;;;;;;;6.13;4.38;;;7.00;87.40;;;;;;4959866;28;20035;-70
2022/04/27 03:59:15;;;;;;;7.38;4.90;;;7.00;87.50;;;;;;4943046;28;20026;-70
2022/04/27 04:01:41;;;;;;;6.80;4.63;;;7.00;87.60;;;;;;4944956;28;20129;-70
2022/04/27 04:04:07;;;;;;;8.27;4.65;;;7.00;86.90;;;;;;4934265;28;20097;-70
2022/04/27 04:06:33;;;;;;;6.85;4.45;;;7.00;86.80;;;;;;4963171;28;20566;-70
2022/04/27 04:08:59;;;;;;;6.95;4.30;;;7.00;86.70;;;;;;4926396;28;20042;-70
2022/04/27 04:11:25;;;;;;;5.88;4.20;;;7.10;86.50;;;;;;4942799;28;20046;-70
2022/04/27 04:14:14;;;;;;;7.90;4.95;;;7.10;86.40;;;;;;4920481;28;20069;-70
2022/04/27 04:16:46;;;;;;;11.30;4.53;;;7.10;86.60;;;;;;4945096;28;20407;-69
2022/04/27 04:19:29;;;;;;;6.85;4.20;;;7.10;86.70;;;;;;4953754;28;20746;-70
2022/04/27 04:22:17;;;;;;;8.88;4.60;;;7.10;86.80;;;;;;4945368;28;20030;-70
2022/04/27 04:30:30;;;;;;;7.90;4.28;;;7.20;86.30;;;;;;4939335;28;20030;-70
2022/04/27 04:33:16;;;;;;;6.57;4.70;;;7.20;86.00;;;;;;4926847;28;20047;-70
2022/04/27 04:35:48;;;;;;;9.95;4.95;;;7.30;85.90;;;;;;4937532;28;20042;-69
2022/04/27 04:38:14;;;;;;;6.00;4.30;;;7.30;86.00;;;;;;4956605;28;20565;-70
2022/04/27 04:40:40;;;;;;;7.57;4.07;;;7.40;85.70;;;;;;4926852;28;20145;-69
2022/04/27 04:43:06;;;;;;;7.45;4.60;;;7.40;85.60;;;;;;4945900;28;20085;-70
2022/04/27 04:45:32;;;;;;;7.78;4.38;;;7.40;85.70;;;;;;4943265;28;20957;-69
2022/04/27 04:48:04;;;;;;;8.02;4.78;;;7.50;85.70;;;;;;4944414;28;20035;-75
2022/04/27 04:50:49;;;;;;;7.63;4.60;;;7.50;85.50;;;;;;4962639;28;20098;-75
2022/04/27 04:53:37;;;;;;;9.48;4.65;;;7.60;85.70;;;;;;4952046;28;20047;-74
2022/04/27 04:56:06;;;;;;;8.10;4.80;;;7.70;85.50;;;;;;4958263;28;20043;-74
2022/04/27 04:58:55;;;;;;;7.93;4.45;;;7.80;85.70;;;;;;4948417;28;20035;-74
2022/04/27 05:01:20;;;;;;;6.60;4.40;;;7.80;85.20;;;;;;4960231;28;20664;-75
2022/04/27 05:04:05;;;;;;;8.45;4.72;;;7.90;84.80;;;;;;4940475;28;20027;-75
2022/04/27 05:06:50;;;;;;;7.95;4.13;;;8.00;84.50;;;;;;4937330;28;20057;-74
2022/04/27 05:09:41;;;;;;;7.38;4.97;;;8.20;84.20;;;;;;4955838;28;20042;-74
2022/04/27 05:12:26;;;;;;;6.38;4.60;;;8.60;83.60;;;;;;4960498;28;20090;-74
2022/04/27 05:15:14;;;;;;;6.35;4.07;;;9.00;82.60;;;;;;4956694;28;20042;-74
2022/04/27 05:17:51;;;;;;;8.02;4.65;;;9.30;81.50;;;;;;4941912;28;20070;-75
2022/04/27 05:20:34;;;;;;;8.05;4.95;;;9.50;81.20;;;;;;4955337;28;20027;-71
2022/04/27 05:23:18;;;;;;;8.18;4.60;;;9.90;80.40;;;;;;4958378;28;20050;-74
2022/04/27 05:26:03;;;;;;;9.75;5.07;;;10.20;79.00;;;;;;4944029;28;20026;-74
2022/04/27 05:32:07;;;;;;;10.18;4.63;;;10.80;76.90;;;;;;4956376;28;20042;-72
2022/04/27 05:34:35;;;;;;;6.95;4.32;;;11.50;76.50;;;;;;4959643;28;20042;-79
2022/04/27 05:37:09;;;;;;;9.32;5.05;;;12.70;71.60;;;;;;4943638;28;20030;-73
2022/04/27 05:39:53;;;;;;;7.10;4.88;;;13.20;67.70;;;;;;4958868;28;20038;-73
2022/04/27 05:42:40;;;;;;;8.80;5.50;;;13.10;67.60;;;;;;4960132;28;20038;-73
2022/04/27 05:45:21;;;;;;;6.85;4.80;;;13.60;67.80;;;;;;4942466;28;20117;-73
2022/04/27 05:48:03;;;;;;;6.30;4.40;;;15.50;62.50;;;;;;4943004;28;20570;-73
2022/04/27 05:50:36;;;;;;;8.48;4.97;;;17.90;54.60;;;;;;4937054;28;20035;-72
2022/04/27 05:53:11;;;;;;;8.07;4.63;;;18.70;50.30;;;;;;4953693;28;20823;-75
2022/04/27 05:56:00;;;;;;;6.25;4.82;;;17.80;49.90;;;;;;4938204;28;20035;-74
2022/04/27 05:58:45;;;;;;;8.95;4.38;;;17.70;51.30;;;;;;4954519;28;21569;-66
2022/04/27 06:01:29;;;;;;;7.00;5.03;;;19.30;47.70;;;;;;4958995;28;20117;-71
2022/04/27 06:04:05;;;;;;;8.00;4.72;;;20.80;44.60;;;;;;4942925;28;20085;-71
2022/04/27 06:06:37;;;;;;;6.70;4.57;;;22.00;41.10;;;;;;4942656;28;20250;-72
2022/04/27 06:09:07;;;;;;;6.65;4.90;;;22.90;39.20;;;;;;4941435;28;20050;-70
2022/04/27 06:11:50;;;;;;;7.10;5.15;;;23.90;37.50;;;;;;4936384;28;20045;-72
2022/04/27 06:14:36;;;;;;;6.32;4.90;;;25.20;34.40;;;;;;4959874;28;20870;-72
2022/04/27 06:17:03;;;;;;;9.27;5.28;;;27.00;33.20;;;;;;4938597;28;20032;-73
2022/04/27 06:19:30;;;;;;;6.75;5.07;;;28.30;30.40;;;;;;4936337;28;20042;-73
2022/04/27 06:21:58;;;;;;;5.15;4.43;;;27.80;30.10;;;;;;4937433;28;20121;-73
2022/04/27 06:24:28;;;;;;;6.65;5.18;;;25.40;32.90;;;;;;4938654;28;20041;-73
2022/04/27 06:27:04;;;;;;;5.40;4.47;;;22.90;36.20;;;;;;4942936;28;20054;-72
2022/04/27 06:29:30;;;;;;;7.22;4.18;;;20.70;40.90;;;;;;4934774;28;20114;-73
2022/04/27 06:31:55;;;;;;;8.23;4.90;;;19.00;44.30;;;;;;4938672;28;20034;-73
2022/04/27 06:34:22;;;;;;;8.48;5.10;;;18.40;46.50;;;;;;4941107;28;20656;-73
2022/04/27 06:36:48;;;;;;;8.18;5.45;;;19.00;44.70;;;;;;4936879;28;20032;-68
2022/04/27 06:39:31;;;;;;;7.50;5.03;;;20.70;41.10;;;;;;4937265;28;20026;-68
2022/04/27 06:41:57;;;;;;;8.30;5.03;;;21.90;38.80;;;;;;4938282;28;20027;-67
2022/04/27 06:44:49;;;;;;;9.32;5.07;;;23.00;36.00;;;;;;4938987;28;20471;-67
2022/04/27 06:47:33;;;;;;;8.88;5.28;;;24.80;34.50;;;;;;4952243;28;20037;-73
2022/04/27 06:50:17;;;;;;;6.55;4.95;;;26.00;32.80;;;;;;4957645;28;20057;-72
2022/04/27 06:53:01;;;;;;;7.32;5.00;;;26.20;31.40;;;;;;4959491;28;20042;-75
2022/04/27 06:55:45;;;;;;;8.32;4.80;;;24.80;33.00;;;;;;4960975;28;20122;-72
2022/04/27 06:58:29;;;;;;;9.07;4.82;;;24.20;35.00;;;;;;4956292;28;20089;-72
2022/04/27 07:01:17;;;;;;;7.55;4.78;;;25.10;32.70;;;;;;4959816;28;20509;-74
2022/04/27 07:03:43;;;;;;;7.30;5.78;;;25.20;32.50;;;;;;4956883;28;20550;-72
2022/04/27 07:06:10;;;;;;;9.98;5.18;;;25.20;31.90;;;;;;4959523;28;20097;-68
2022/04/27 07:08:36;;;;;;;8.38;5.32;;;23.30;33.70;;;;;;4943011;28;20128;-74
2022/04/27 07:11:02;;;;;;;7.55;4.75;;;21.60;37.60;;;;;;4943129;28;20069;-73
2022/04/27 07:13:29;;;;;;;6.78;5.47;;;21.60;38.60;;;;;;4955209;28;20030;-74
2022/04/27 07:16:00;;;;;;;9.18;4.80;;;22.70;36.80;;;;;;4958678;28;20030;-74
2022/04/27 07:18:28;;;;;;;7.68;4.63;;;23.50;36.00;;;;;;4955675;28;20113;-70
2022/04/27 07:20:54;;;;;;;8.90;5.40;;;23.30;36.00;;;;;;4957239;28;20034;-73
2022/04/27 07:23:19;;;;;;;5.85;4.78;;;23.70;35.90;;;;;;4957578;28;20046;-74
2022/04/27 07:25:45;;;;;;;6.75;5.20;;;25.30;34.20;;;;;;4958751;28;20028;-74
2022/04/27 07:28:11;;;;;;;7.10;4.90;;;26.50;31.50;;;;;;4954402;28;20035;-74
2022/04/27 07:30:36;;;;;;;8.32;5.22;;;26.60;31.00;;;;;;4957450;28;20093;-74
2022/04/27 07:33:03;;;;;;;6.82;4.97;;;27.10;32.00;;;;;;4957742;28;20031;-74
2022/04/27 07:35:29;;;;;;;6.82;4.07;;;28.00;30.00;;;;;;4942842;28;20027;-74
2022/04/27 07:37:55;;;;;;;8.50;6.07;;;30.30;28.90;;;;;;4953833;28;20037;-74
2022/04/27 07:40:20;;;;;;;9.48;5.93;;;32.60;27.40;;;;;;4958347;28;20102;-74
2022/04/27 07:42:48;;;;;;;9.02;5.20;;;32.10;27.00;;;;;;4953837;28;20415;-69
2022/04/27 07:45:13;;;;;;;7.38;5.78;;;30.10;27.80;;;;;;4955566;28;20050;-67
2022/04/27 07:47:46;;;;;;;9.05;5.07;;;27.20;29.20;;;;;;4959106;28;20043;-71
2022/04/27 07:50:14;;;;;;;9.82;5.90;;;25.10;32.30;;;;;;4959772;28;20038;-76
2022/04/27 07:52:40;;;;;;;6.68;4.82;;;23.50;34.60;;;;;;4956643;28;20038;-75
2022/04/27 07:55:07;;;;;;;5.20;4.70;;;23.70;35.20;;;;;;4943666;28;20820;-74
2022/04/27 07:57:33;;;;;;;5.07;4.57;;;24.40;34.20;;;;;;4959747;28;20038;-75
2022/04/27 08:00:01;;;;;;;7.43;5.45;;;25.00;32.60;;;;;;4958781;28;20836;-75
2022/04/27 08:02:26;;;;;;;7.18;5.25;;;25.40;32.70;;;;;;4957864;28;20114;-75
2022/04/27 08:04:52;;;;;;;9.00;5.90;;;25.10;32.50;;;;;;4958205;28;20080;-74
2022/04/27 08:07:18;;;;;;;8.68;5.22;;;24.70;33.40;;;;;;4946031;28;20929;-75
2022/04/27 08:09:43;;;;;;;6.63;5.22;;;24.50;34.10;;;;;;4958240;28;20041;-74
2022/04/27 08:12:10;;;;;;;7.05;5.40;;;24.10;34.50;;;;;;4958691;28;20039;-74
2022/04/27 08:14:36;;;;;;;11.43;5.13;;;23.20;35.40;;;;;;4959315;28;20031;-74
2022/04/27 08:17:02;;;;;;;7.00;5.35;;;23.10;35.70;;;;;;4958191;28;20035;-74
2022/04/27 08:19:28;;;;;;;5.80;4.90;;;24.20;33.90;;;;;;4944748;28;20038;-75
2022/04/27 08:21:54;;;;;;;8.23;5.68;;;25.90;32.00;;;;;;4960356;28;20046;-74
2022/04/27 08:24:24;;;;;;;8.10;5.10;;;27.60;30.20;;;;;;4955853;28;20094;-74
2022/04/27 08:26:51;;;;;;;7.03;4.80;;;26.90;31.10;;;;;;4953100;28;20121;-74
2022/04/27 08:29:17;;;;;;;6.28;4.80;;;25.70;31.30;;;;;;4954095;28;20035;-74
2022/04/27 08:31:43;;;;;;;7.38;5.38;;;25.00;33.00;;;;;;4955132;28;20109;-74
2022/04/27 08:34:09;;;;;;;6.88;4.43;;;24.70;32.80;;;;;;4944146;28;20527;-74
2022/04/27 08:36:35;;;;;;;8.07;4.80;;;24.40;32.50;;;;;;4956420;28;20023;-74
2022/04/27 08:39:01;;;;;;;11.93;4.93;;;24.70;32.30;;;;;;4957790;28;20130;-74
2022/04/27 08:41:28;;;;;;;10.93;5.13;;;25.30;31.60;;;;;;4957699;28;20061;-74
2022/04/27 08:43:55;;;;;;;9.48;4.18;;;27.00;29.60;;;;;;4960926;28;20030;-74
2022/04/27 08:46:21;;;;;;;7.95;4.60;;;28.70;28.90;;;;;;4941366;28;20135;-73
2022/04/27 08:48:48;;;;;;;8.82;4.07;;;30.10;28.00;;;;;;4951450;28;20041;-74
2022/04/27 08:51:14;;;;;;;6.47;4.47;;;31.40;27.30;;;;;;4961750;28;20031;-74
2022/04/27 08:53:41;;;;;;;6.55;4.40;;;32.00;26.00;;;;;;4957708;28;20170;-74
2022/04/27 08:56:07;;;;;;;8.48;3.47;;;32.40;26.20;;;;;;4962281;28;20034;-71
2022/04/27 08:58:33;;;;;;;6.07;3.88;;;31.30;26.60;;;;;;4956318;28;20061;-74
2022/04/27 09:01:01;;;;;;;5.25;4.47;;;30.40;26.40;;;;;;4962922;28;20026;-73
2022/04/27 09:03:40;;;;;;;5.55;3.60;;;28.80;26.80;;;;;;4956950;28;20042;-71
2022/04/27 09:06:11;;;;;;;7.85;4.28;;;28.30;28.20;;;;;;4959868;28;20035;-71
2022/04/27 09:08:40;;;;;;;4.80;3.40;;;29.80;26.90;;;;;;4942422;28;20126;-67
2022/04/27 09:11:26;;;;;;;4.47;3.03;;;32.40;26.50;;;;;;4956610;28;20031;-70
2022/04/27 09:13:53;;;;;;;6.30;3.58;;;33.10;24.80;;;;;;4952890;28;20031;-69
2022/04/27 09:16:23;;;;;;;7.82;3.38;;;34.40;24.50;;;;;;4960550;28;20031;-73
2022/04/27 09:21:59;;;;;;;8.25;3.85;;;33.70;24.30;;;;;;4949712;28;20027;-72
2022/04/27 09:24:26;;;;;;;8.05;2.50;;;34.90;23.80;;;;;;4954266;28;20495;-74
2022/04/27 09:26:59;;;;;;;5.63;2.72;;;36.90;22.90;;;;;;4955545;28;20039;-73
2022/04/27 09:29:26;;;;;;;9.35;2.80;;;38.30;21.90;;;;;;4959897;28;20088;-70
2022/04/27 09:31:56;;;;;;;4.47;3.20;;;36.10;22.60;;;;;;4955460;28;20046;-71
2022/04/27 09:34:28;;;;;;;4.32;3.10;;;32.90;23.70;;;;;;4953992;28;20620;-68
2022/04/27 09:37:02;;;;;;;5.43;2.60;;;31.80;25.30;;;;;;4956245;28;20398;-72
2022/04/27 09:39:28;;;;;;;3.00;2.38;;;32.40;24.70;;;;;;4952534;28;20019;-73
2022/04/27 09:42:04;;;;;;;4.55;3.42;;;34.00;24.30;;;;;;4955101;28;20035;-70
2022/04/27 09:44:35;;;;;;;4.95;2.90;;;34.30;23.20;;;;;;4957625;28;20038;-67
2022/04/27 09:47:05;;;;;;;2.95;2.58;;;33.40;23.10;;;;;;4952261;28;20423;-74
2022/04/27 09:49:32;;;;;;;3.70;2.42;;;31.00;24.10;;;;;;4958184;28;20030;-73
2022/04/27 09:52:00;;;;;;;13.10;3.08;;;29.50;26.10;;;;;;4938063;28;20038;-73
2022/04/27 09:54:28;;;;;;;4.75;4.03;;;32.20;24.40;;;;;;4943541;28;20027;-74
2022/04/27 09:56:59;;;;;;;7.60;2.80;;;35.70;22.90;;;;;;4960077;28;20167;-70
2022/04/27 09:59:36;;;;;;;8.60;2.35;;;37.60;21.50;;;;;;4940766;28;20027;-71
2022/04/27 10:02:07;;;;;;;2.85;2.00;;;36.80;22.00;;;;;;4955054;28;20354;-73
2022/04/27 10:04:34;;;;;;;3.38;2.60;;;34.70;22.90;;;;;;4950266;28;20043;-70
2022/04/27 10:07:02;;;;;;;4.80;2.95;;;33.50;23.10;;;;;;4956082;28;20057;-72
2022/04/27 10:09:29;;;;;;;6.55;2.80;;;32.10;24.10;;;;;;4958662;28;20027;-73
2022/04/27 10:12:00;;;;;;;7.15;3.03;;;30.60;24.90;;;;;;4957122;28;20050;-74
2022/04/27 10:14:27;;;;;;;11.63;3.15;;;29.20;25.90;;;;;;4941172;28;20031;-74
2022/04/27 10:16:54;;;;;;;4.75;2.90;;;29.30;26.30;;;;;;4954910;28;20585;-71
2022/04/27 10:19:20;;;;;;;4.18;3.00;;;30.80;25.20;;;;;;4956744;28;20022;-73
2022/04/27 10:21:57;;;;;;;3.28;2.58;;;32.50;24.50;;;;;;4960979;28;20130;-74
2022/04/27 10:24:37;;;;;;;3.15;2.67;;;31.70;24.90;;;;;;4956860;28;20026;-74
2022/04/27 10:27:17;;;;;;;5.22;2.85;;;30.40;25.50;;;;;;4954441;28;20077;-73
2022/04/27 10:30:00;;;;;;;3.65;2.85;;;30.20;25.50;;;;;;4951481;28;20035;-73
2022/04/27 10:32:48;;;;;;;3.13;2.28;;;29.50;26.20;;;;;;4955077;28;20046;-74
2022/04/27 10:35:21;;;;;;;4.18;2.50;;;28.90;26.10;;;;;;4956355;28;20042;-68
2022/04/27 10:37:54;;;;;;;2.38;2.00;;;29.00;26.30;;;;;;4958305;28;20039;-68
2022/04/27 10:40:38;;;;;;;3.45;2.50;;;30.80;24.70;;;;;;4954543;28;20046;-68
2022/04/27 10:43:12;;;;;;;4.05;2.70;;;32.70;24.30;;;;;;4960862;28;20168;-68
2022/04/27 10:45:45;;;;;;;4.00;2.05;;;33.10;23.40;;;;;;4952876;28;20148;-68
2022/04/27 10:48:18;;;;;;;3.00;2.10;;;33.60;23.80;;;;;;4955216;28;20078;-68
2022/04/27 10:51:02;;;;;;;3.25;2.00;;;32.90;23.20;;;;;;4954215;28;20031;-69
2022/04/27 10:53:30;;;;;;;5.25;2.53;;;31.70;23.90;;;;;;4957478;28;20034;-68
2022/04/27 10:55:58;;;;;;;3.78;2.25;;;31.00;24.80;;;;;;4954417;28;20090;-69
2022/04/27 10:58:30;;;;;;;3.30;2.50;;;29.50;25.50;;;;;;4958127;28;20093;-68
2022/04/27 11:00:58;;;;;;;3.75;2.55;;;27.70;26.80;;;;;;4953925;28;20058;-68
2022/04/27 11:03:25;;;;;;;2.72;2.08;;;26.20;28.70;;;;;;4958011;28;20480;-69
2022/04/27 11:05:59;;;;;;;5.53;2.92;;;25.20;28.00;;;;;;4957821;28;20031;-68
2022/04/27 11:08:47;;;;;;;6.05;2.88;;;24.20;29.30;;;;;;4953495;28;20035;-69
2022/04/27 11:11:16;;;;;;;3.88;2.78;;;23.40;30.80;;;;;;4957560;28;20093;-69
2022/04/27 11:13:42;;;;;;;4.20;2.92;;;23.00;30.80;;;;;;4956408;28;20117;-68
2022/04/27 11:16:10;;;;;;;5.82;3.30;;;22.60;32.20;;;;;;4958615;28;20046;-68
2022/04/27 11:18:52;;;;;;;3.00;2.67;;;22.20;32.60;;;;;;4943767;28;20035;-68
2022/04/27 11:21:18;;;;;;;2.85;2.58;;;22.00;33.80;;;;;;4961542;28;20034;-68
2022/04/27 11:23:44;;;;;;;5.55;2.90;;;22.30;33.70;;;;;;4956423;28;20471;-69
2022/04/27 11:26:10;;;;;;;5.20;2.83;;;22.60;32.80;;;;;;4955457;28;20093;-68
2022/04/27 11:28:40;;;;;;;5.15;2.53;;;22.70;33.20;;;;;;4958828;28;20043;-68
2022/04/27 11:31:06;;;;;;;4.95;2.63;;;22.50;32.30;;;;;;4958756;28;20109;-68
2022/04/27 11:33:36;;;;;;;3.85;2.75;;;22.10;32.20;;;;;;4960502;28;20035;-68
2022/04/27 11:36:02;;;;;;;5.88;2.50;;;21.60;33.30;;;;;;4937194;28;20038;-69
2022/04/27 11:38:37;;;;;;;7.80;2.50;;;21.30;34.40;;;;;;4959109;28;20852;-69
2022/04/27 11:41:12;;;;;;;4.80;2.08;;;21.30;34.30;;;;;;4958848;28;20038;-68
2022/04/27 11:43:38;;;;;;;3.08;1.60;;;21.20;33.30;;;;;;4945671;28;20046;-69
2022/04/27 11:46:04;;;;;;;4.60;2.50;;;21.10;33.20;;;;;;4940458;28;20034;-67
2022/04/27 11:48:30;;;;;;;2.60;2.08;;;21.00;33.90;;;;;;4957833;28;20038;-67
2022/04/27 11:51:01;;;;;;;3.83;2.05;;;20.90;34.30;;;;;;4959791;28;20027;-66
2022/04/27 11:53:27;;;;;;;3.22;2.45;;;20.90;33.40;;;;;;4956600;28;20066;-67
2022/04/27 11:55:54;;;;;;;2.30;1.75;;;20.90;31.80;;;;;;4959314;28;20452;-74
2022/04/27 11:58:27;;;;;;;2.90;2.20;;;20.80;33.80;;;;;;4965077;28;20041;-71
2022/04/27 12:00:54;;;;;;;2.88;2.25;;;21.00;34.00;;;;;;4963157;28;20035;-71
2022/04/27 12:03:20;;;;;;;3.33;2.38;;;21.10;34.90;;;;;;4962001;28;20112;-71
2022/04/27 12:05:50;;;;;;;3.35;2.00;;;21.10;33.90;;;;;;4960355;28;20121;-71
2022/04/27 12:08:23;;;;;;;3.88;2.90;;;21.10;33.30;;;;;;4954274;28;20841;-68
2022/04/27 12:10:49;;;;;;;3.90;1.90;;;21.10;30.60;;;;;;4953369;28;20063;-73
2022/04/27 12:13:18;;;;;;;7.70;2.80;;;21.10;33.60;;;;;;4946662;28;20122;-75
2022/04/27 12:15:52;;;;;;;4.45;2.45;;;21.40;32.30;;;;;;4956120;28;20039;-73
2022/04/27 12:18:26;;;;;;;2.63;2.03;;;21.50;34.20;;;;;;4943920;28;20034;-74
2022/04/27 12:20:55;;;;;;;3.47;2.00;;;21.70;34.00;;;;;;4959790;28;20031;-73
2022/04/27 12:23:29;;;;;;;3.30;2.55;;;21.70;33.00;;;;;;4961153;28;20035;-72
2022/04/27 12:25:57;;;;;;;4.65;2.60;;;21.70;33.60;;;;;;4954483;28;20027;-72
2022/04/27 12:28:29;;;;;;;2.60;2.30;;;21.60;34.00;;;;;;4954807;28;20031;-72
2022/04/27 12:31:02;;;;;;;3.60;2.40;;;21.40;34.20;;;;;;4956382;28;20035;-71
2022/04/27 12:33:31;;;;;;;6.90;2.70;;;21.40;34.40;;;;;;4960151;28;20982;-70
2022/04/27 12:39:03;;;;;;;4.97;3.05;;;21.70;33.60;;;;;;4956023;28;20809;-73
2022/04/27 12:41:34;;;;;;;6.82;2.72;;;21.80;32.70;;;;;;4957845;28;20022;-75
2022/04/27 12:44:05;;;;;;;4.18;2.42;;;21.70;34.30;;;;;;4958750;28;20038;-75
2022/04/27 12:46:31;;;;;;;5.55;2.50;;;21.60;33.40;;;;;;4953978;28;20031;-72
2022/04/27 12:49:05;;;;;;;5.40;2.30;;;21.40;33.60;;;;;;4954307;28;20114;-72
2022/04/27 12:51:34;;;;;;;4.20;2.22;;;21.20;33.60;;;;;;4957736;28;20023;-72
2022/04/27 12:54:01;;;;;;;3.15;2.00;;;20.90;33.50;;;;;;4943734;28;20026;-71
2022/04/27 12:56:35;;;;;;;6.18;2.50;;;20.80;34.20;;;;;;4957362;28;20166;-72
2022/04/27 12:59:09;;;;;;;4.63;2.33;;;21.00;34.30;;;;;;4960166;28;20034;-65
2022/04/27 13:01:35;;;;;;;7.53;2.72;;;21.10;33.30;;;;;;4936310;28;20550;-70
2022/04/27 13:04:01;;;;;;;4.78;2.53;;;21.10;34.20;;;;;;4943446;28;20035;-69
2022/04/27 13:06:30;;;;;;;2.70;2.30;;;21.40;32.70;;;;;;4955491;28;20035;-70
2022/04/27 13:11:55;;;;;;;3.10;1.77;;;21.60;32.70;;;;;;4955584;28;20045;-71
2022/04/27 13:11:55;;;;;;;3.83;2.40;;;21.80;33.30;;;;;;4956897;28;20381;-70
2022/04/27 13:14:22;;;;;;;5.13;2.53;;;22.10;33.60;;;;;;4958895;28;20097;-72
2022/04/27 13:16:48;;;;;;;4.10;2.00;;;22.00;32.50;;;;;;4959586;28;20124;-71
2022/04/27 13:19:14;;;;;;;4.38;2.47;;;21.80;32.30;;;;;;4958363;28;20114;-70
2022/04/27 13:21:39;;;;;;;5.65;2.20;;;21.60;31.70;;;;;;4955675;28;20061;-70
2022/04/27 13:24:05;;;;;;;11.07;2.60;;;21.30;33.10;;;;;;4955190;28;20056;-71
2022/04/27 13:26:31;;;;;;;2.83;2.03;;;21.30;33.60;;;;;;4960309;28;20138;-71
2022/04/27 13:28:57;;;;;;;2.67;1.92;;;21.40;32.90;;;;;;4952562;28;20575;-69